This is the latest recevied weather packets stored in our database for station/object KD8UTJ. If no packets are shown the sender has not sent any weather packets the latest 10 day(s).
| Time | Temp. | Humidity | Pressure | Rain* | Wind** | Luminosity | Snow |
|---|---|---|---|---|---|---|---|
| 1778186180 | 30.56° C | 67% | 1014.8 hPa | 0 mm | - | 525 W/m² | - |
| 1778185877 | 30.56° C | 67% | 1014.9 hPa | 0 mm | - | 138 W/m² | - |
| 1778185573 | 30.56° C | 69% | 1014.9 hPa | 0 mm | - | 423 W/m² | - |
| 1778185269 | 30.56° C | 69% | 1014.9 hPa | 0 mm | - | 605 W/m² | - |
| 1778184964 | 30.56° C | 68% | 1015 hPa | 0 mm | - | 606 W/m² | - |
| 1778184662 | 30.56° C | 68% | 1014.9 hPa | 0 mm | - | 174 W/m² | - |
| 1778184357 | 30.56° C | 66% | 1015 hPa | 0 mm | - | 632 W/m² | - |
| 1778184053 | 30.56° C | 64% | 1015 hPa | 0 mm | - | 636 W/m² | - |
| 1778183751 | 30.56° C | 68% | 1015.2 hPa | 0 mm | - | 634 W/m² | - |
| 1778183448 | 30.56° C | 67% | 1015.1 hPa | 0 mm | - | 623 W/m² | - |
| 1778183144 | 30.56° C | 67% | 1015.2 hPa | 0 mm | - | 638 W/m² | - |
| 1778182840 | 30.56° C | 67% | 1015.2 hPa | 0 mm | - | 574 W/m² | - |
| 1778182538 | 30.56° C | 67% | 1015.4 hPa | 0 mm | - | 657 W/m² | - |
| 1778182235 | 31.11° C | 64% | 1015.6 hPa | 0 mm | - | 667 W/m² | - |
| 1778181931 | 30.56° C | 66% | 1015.4 hPa | 0 mm | - | 685 W/m² | - |
| 1778181628 | 30.56° C | 70% | 1015.5 hPa | 0 mm | - | 492 W/m² | - |
| 1778181323 | 30.56° C | 65% | 1015.7 hPa | 0 mm | - | 724 W/m² | - |
| 1778181020 | 31.11° C | 67% | 1015.5 hPa | 0 mm | - | 715 W/m² | - |
| 1778180718 | 32.22° C | 53% | 1015.7 hPa | 0 mm | - | 722 W/m² | - |
| 1778180417 | 32.22° C | 51% | 1016 hPa | 0 mm | - | 724 W/m² | - |
| 1778180114 | 32.22° C | 53% | 1016.1 hPa | 0 mm | - | 776 W/m² | - |
| 1778179810 | 32.22° C | 50% | 1016.1 hPa | 0 mm | - | 776 W/m² | - |
| 1778179509 | 32.22° C | 53% | 1016.1 hPa | 0 mm | - | 780 W/m² | - |
| 1778179206 | 31.67° C | 53% | 1016.3 hPa | 0 mm | - | 184 W/m² | - |
| 1778178902 | 32.22° C | 53% | 1016.3 hPa | 0 mm | - | 787 W/m² | - |
* Rain latest hour (hover to see other rain measurements)
** Current wind speed in m/s (hover to see current wind gust speed)